createdAt,value
2018-02-04T00:01:05.670Z,19.70
2018-02-04T00:06:08.368Z,19.80
2018-02-04T00:11:11.501Z,19.80
2018-02-04T00:16:14.133Z,19.90
2018-02-04T00:21:17.182Z,19.90
2018-02-04T00:26:19.957Z,20.00
2018-02-04T00:31:22.491Z,20.00
2018-02-04T00:36:25.504Z,20.00
2018-02-04T00:41:28.015Z,20.10
2018-02-04T00:46:30.549Z,20.10
2018-02-04T00:51:33.272Z,20.10
2018-02-04T00:56:35.929Z,20.20
2018-02-04T01:01:38.723Z,20.20
2018-02-04T01:06:41.521Z,20.20
2018-02-04T01:11:44.030Z,20.30
2018-02-04T01:16:46.565Z,20.30
2018-02-04T01:21:49.216Z,20.30
2018-02-04T01:26:51.838Z,20.30
2018-02-04T01:31:54.768Z,20.40
2018-02-04T01:36:58.786Z,20.40
2018-02-04T01:42:02.057Z,20.40
2018-02-04T01:47:04.611Z,20.40
2018-02-04T01:52:07.379Z,20.40
2018-02-04T01:57:09.918Z,20.30
2018-02-04T02:02:13.077Z,20.30
2018-02-04T02:07:15.576Z,20.30
2018-02-04T02:12:18.062Z,20.30
2018-02-04T02:17:20.602Z,20.30
2018-02-04T02:22:23.102Z,20.20
2018-02-04T02:27:25.744Z,20.20
2018-02-04T02:32:28.250Z,20.20
2018-02-04T02:37:30.743Z,20.20
2018-02-04T02:42:33.251Z,20.10
2018-02-04T02:47:35.762Z,20.10
2018-02-04T02:52:38.870Z,20.10
2018-02-04T02:57:42.271Z,20.00
2018-02-04T03:02:44.766Z,20.10
2018-02-04T03:07:47.975Z,20.00
2018-02-04T03:12:51.389Z,20.00
2018-02-04T03:17:53.926Z,20.00
2018-02-04T03:22:56.470Z,20.00
2018-02-04T03:27:59.255Z,19.90
2018-02-04T03:33:01.751Z,19.90
2018-02-04T03:38:04.241Z,19.90
2018-02-04T03:43:07.035Z,19.90
2018-02-04T03:48:10.053Z,19.90
2018-02-04T03:53:14.071Z,19.90
2018-02-04T03:58:16.625Z,19.90
2018-02-04T04:03:19.114Z,19.80
2018-02-04T04:08:23.156Z,19.80
2018-02-04T04:13:25.794Z,19.80
2018-02-04T04:18:28.307Z,19.70
2018-02-04T04:23:31.706Z,19.70
2018-02-04T04:28:34.231Z,19.70
2018-02-04T04:33:36.878Z,19.70
2018-02-04T04:38:39.463Z,19.70
2018-02-04T04:43:41.983Z,19.70
2018-02-04T04:48:44.773Z,19.70
2018-02-04T04:53:47.769Z,19.60
2018-02-04T04:58:50.461Z,19.60
2018-02-04T05:03:53.014Z,19.60
2018-02-04T05:08:55.813Z,19.60
2018-02-04T05:13:59.099Z,19.50
2018-02-04T05:19:02.503Z,19.50
2018-02-04T05:24:05.012Z,19.50
2018-02-04T05:29:08.559Z,19.50
2018-02-04T05:34:11.079Z,19.50
2018-02-04T05:39:13.607Z,19.50
2018-02-04T05:44:16.103Z,19.50
2018-02-04T05:49:19.575Z,19.40
2018-02-04T05:54:22.074Z,19.40
2018-02-04T05:59:24.618Z,19.40
2018-02-04T06:04:27.883Z,19.40
2018-02-04T06:09:30.488Z,19.40
2018-02-04T06:14:33.389Z,19.40
2018-02-04T06:19:35.907Z,19.40
2018-02-04T06:24:39.194Z,19.40
2018-02-04T06:29:41.694Z,19.30
2018-02-04T06:34:44.260Z,19.40
2018-02-04T06:39:46.796Z,19.40
2018-02-04T06:44:50.149Z,19.30
2018-02-04T06:49:52.996Z,19.30
2018-02-04T06:54:55.516Z,19.40
2018-02-04T06:59:58.198Z,19.30
2018-02-04T07:05:01.509Z,19.30
2018-02-04T07:10:04.051Z,19.30
2018-02-04T07:15:06.909Z,19.40
2018-02-04T07:20:09.407Z,19.40
2018-02-04T07:25:12.907Z,20.10
2018-02-04T07:30:15.460Z,20.10
2018-02-04T07:35:18.252Z,19.70
2018-02-04T07:40:20.891Z,19.60
2018-02-04T07:45:24.097Z,19.60
2018-02-04T07:50:28.005Z,19.70
2018-02-04T07:55:30.637Z,19.60
2018-02-04T08:00:33.961Z,19.70
2018-02-04T08:05:37.574Z,19.70
2018-02-04T08:10:40.893Z,21.80
2018-02-04T08:15:44.203Z,21.80
2018-02-04T08:20:47.089Z,21.50
2018-02-04T08:25:52.768Z,19.90
2018-02-04T08:30:55.562Z,19.90
2018-02-04T08:35:58.223Z,19.90
2018-02-04T08:41:00.750Z,19.90
2018-02-04T08:46:03.297Z,19.90
2018-02-04T08:51:05.830Z,19.90
2018-02-04T08:56:09.132Z,19.90
2018-02-04T09:01:11.839Z,19.90
2018-02-04T09:06:15.308Z,19.90
2018-02-04T09:11:17.847Z,19.80
2018-02-04T09:16:20.518Z,19.90
2018-02-04T09:21:23.322Z,19.90
2018-02-04T09:26:25.852Z,19.90
2018-02-04T09:31:28.795Z,20.10
2018-02-04T09:36:31.582Z,20.10
2018-02-04T09:41:34.545Z,20.20
2018-02-04T09:46:37.114Z,20.20
2018-02-04T09:51:39.896Z,20.30
2018-02-04T09:56:42.535Z,20.20
2018-02-04T10:01:45.213Z,20.30
2018-02-04T10:06:48.519Z,20.20
2018-02-04T10:11:51.251Z,20.20
2018-02-04T10:16:53.924Z,20.20
2018-02-04T10:21:56.460Z,20.20
2018-02-04T10:26:59.742Z,20.30
2018-02-04T10:32:02.645Z,20.20
2018-02-04T10:37:05.146Z,20.30
2018-02-04T10:42:08.489Z,20.30
2018-02-04T10:47:11.028Z,20.30
2018-02-04T10:52:13.861Z,20.40
2018-02-04T10:57:16.568Z,20.40
2018-02-04T11:02:19.067Z,20.40
2018-02-04T11:07:21.908Z,20.40
2018-02-04T11:12:24.491Z,20.50
2018-02-04T11:17:26.999Z,20.60
2018-02-04T11:22:29.505Z,20.60
2018-02-04T11:27:32.191Z,20.50
2018-02-04T11:32:34.716Z,20.50
2018-02-04T11:37:37.362Z,20.40
2018-02-04T11:42:39.871Z,20.40
2018-02-04T11:47:42.567Z,20.40
2018-02-04T11:52:47.697Z,20.40
2018-02-04T11:57:50.410Z,20.30
2018-02-04T12:02:53.120Z,20.30
2018-02-04T12:07:55.673Z,20.30
2018-02-04T12:12:58.211Z,20.20
2018-02-04T12:18:00.769Z,20.20
2018-02-04T12:23:03.303Z,20.30
2018-02-04T12:28:05.786Z,20.20
2018-02-04T12:33:08.774Z,20.20
2018-02-04T12:38:11.313Z,20.20
2018-02-04T12:43:14.598Z,20.10
2018-02-04T12:48:17.118Z,20.10
2018-02-04T12:53:20.572Z,20.00
2018-02-04T12:58:23.093Z,20.10
2018-02-04T13:03:25.755Z,20.00
2018-02-04T13:08:29.244Z,20.00
2018-02-04T13:13:32.517Z,20.00
2018-02-04T13:18:35.008Z,20.00
2018-02-04T13:23:38.379Z,20.00
2018-02-04T13:28:40.870Z,20.00
2018-02-04T13:33:43.481Z,20.10
2018-02-04T13:38:46.024Z,20.00
2018-02-04T13:43:48.530Z,20.00
2018-02-04T13:48:51.814Z,20.00
2018-02-04T13:53:56.814Z,20.10
2018-02-04T13:59:00.143Z,20.00
2018-02-04T14:04:02.847Z,20.00
2018-02-04T14:09:05.368Z,20.00
2018-02-04T14:14:07.887Z,19.90
2018-02-04T14:19:10.872Z,20.00
2018-02-04T14:24:14.985Z,19.90
2018-02-04T14:29:17.542Z,19.90
2018-02-04T14:34:20.826Z,20.00
2018-02-04T14:39:24.190Z,20.00
2018-02-04T14:44:26.742Z,20.00
2018-02-04T14:49:30.143Z,19.90
2018-02-04T14:54:32.883Z,20.00
2018-02-04T14:59:35.402Z,19.90
2018-02-04T15:04:38.495Z,20.00
2018-02-04T15:09:41.014Z,20.00
2018-02-04T15:14:43.627Z,20.00
2018-02-04T15:19:46.140Z,20.10
2018-02-04T15:24:48.913Z,20.10
2018-02-04T15:29:51.529Z,20.20
2018-02-04T15:34:55.083Z,20.20
2018-02-04T15:39:58.094Z,20.20
2018-02-04T15:45:00.750Z,20.20
2018-02-04T15:50:03.368Z,20.20
2018-02-04T15:55:05.866Z,20.20
2018-02-04T16:00:09.049Z,20.20
2018-02-04T16:05:12.474Z,20.20
2018-02-04T16:10:16.329Z,20.20
2018-02-04T16:15:19.901Z,20.20
2018-02-04T16:20:23.199Z,20.20
2018-02-04T16:25:25.771Z,20.20
2018-02-04T16:30:28.300Z,20.20
2018-02-04T16:35:30.797Z,20.20
2018-02-04T16:40:33.832Z,20.10
2018-02-04T16:45:36.392Z,20.10
2018-02-04T16:50:39.075Z,20.20
2018-02-04T16:55:41.871Z,20.20
2018-02-04T17:00:44.409Z,20.30
2018-02-04T17:05:46.958Z,20.40
2018-02-04T17:10:49.454Z,20.50
2018-02-04T17:15:51.971Z,20.50
2018-02-04T17:20:54.661Z,20.60
2018-02-04T17:25:57.187Z,20.70
2018-02-04T17:30:59.744Z,20.70
2018-02-04T17:36:02.462Z,20.60
2018-02-04T17:41:05.046Z,20.60
2018-02-04T17:46:07.727Z,20.70
2018-02-04T17:51:11.252Z,20.70
2018-02-04T17:56:14.691Z,20.70
2018-02-04T18:01:17.301Z,20.70
2018-02-04T18:06:20.047Z,20.80
2018-02-04T18:11:23.464Z,20.80
2018-02-04T18:16:26.137Z,20.80
2018-02-04T18:21:28.755Z,20.90
2018-02-04T18:26:32.054Z,20.90
2018-02-04T18:31:34.682Z,21.00
2018-02-04T18:36:38.113Z,20.90
2018-02-04T18:41:40.786Z,20.90
2018-02-04T18:46:44.135Z,20.90
2018-02-04T18:51:47.309Z,20.90
2018-02-04T18:56:50.826Z,21.00
2018-02-04T19:01:54.475Z,21.00
2018-02-04T19:06:57.153Z,21.00
2018-02-04T19:12:00.843Z,21.10
2018-02-04T19:17:03.472Z,21.00
2018-02-04T19:22:07.913Z,21.10
2018-02-04T19:27:11.176Z,21.10
2018-02-04T19:37:23.576Z,21.10
2018-02-04T19:42:26.939Z,21.10
2018-02-04T19:47:29.591Z,21.10
2018-02-04T19:52:33.216Z,21.20
2018-02-04T19:57:35.919Z,21.20
2018-02-04T20:02:38.484Z,21.20
2018-02-04T20:07:41.016Z,21.20
2018-02-04T20:12:43.739Z,21.20
2018-02-04T20:17:46.366Z,21.20
2018-02-04T20:22:49.176Z,21.20
2018-02-04T20:27:51.827Z,21.30
2018-02-04T20:33:06.775Z,21.30
2018-02-04T20:38:10.281Z,21.30
2018-02-04T20:43:12.778Z,21.30
2018-02-04T20:48:15.311Z,21.30
2018-02-04T20:53:17.887Z,21.30
2018-02-04T20:58:20.487Z,21.30
2018-02-04T21:03:23.087Z,21.40
2018-02-04T21:08:26.055Z,21.40
2018-02-04T21:13:28.622Z,21.40
2018-02-04T21:18:31.459Z,21.40
2018-02-04T21:23:34.078Z,21.40
2018-02-04T21:28:36.940Z,21.40
2018-02-04T21:33:39.762Z,21.40
2018-02-04T21:38:43.178Z,21.40
2018-02-04T21:43:45.812Z,21.40
2018-02-04T21:48:48.664Z,21.50
2018-02-04T21:53:52.007Z,21.50
2018-02-04T21:58:54.760Z,21.40
2018-02-04T22:03:58.631Z,21.50
2018-02-04T22:09:01.242Z,21.50
2018-02-04T22:14:03.790Z,21.60
2018-02-04T22:19:06.808Z,21.60
2018-02-04T22:24:10.129Z,21.70
2018-02-04T22:29:13.084Z,21.70
2018-02-04T22:34:15.862Z,21.70
2018-02-04T22:39:18.541Z,21.70
2018-02-04T22:44:21.050Z,21.70
2018-02-04T22:49:24.464Z,21.70
2018-02-04T22:54:27.352Z,21.60
2018-02-04T22:59:30.710Z,21.50
2018-02-04T23:04:33.303Z,21.50
2018-02-04T23:09:36.204Z,21.50
2018-02-04T23:14:38.736Z,21.50
2018-02-04T23:19:41.266Z,21.40
2018-02-04T23:24:43.807Z,21.40
2018-02-04T23:29:46.507Z,21.40
2018-02-04T23:34:48.998Z,21.40
2018-02-04T23:39:52.287Z,21.40
2018-02-04T23:44:54.801Z,21.40
2018-02-04T23:49:58.074Z,21.30
2018-02-04T23:55:00.606Z,21.30
